createdAt,value
2017-11-28T00:00:13.940Z,0
2017-11-28T00:00:54.463Z,0
2017-11-28T00:01:34.997Z,0
2017-11-28T00:02:15.520Z,0
2017-11-28T00:02:56.048Z,0
2017-11-28T00:03:36.586Z,0
2017-11-28T00:04:17.115Z,0
2017-11-28T00:04:57.652Z,0
2017-11-28T00:05:38.171Z,0
2017-11-28T00:06:18.720Z,0
2017-11-28T00:06:59.248Z,0
2017-11-28T00:07:39.777Z,0
2017-11-28T00:08:20.327Z,0
2017-11-28T00:09:00.854Z,0
2017-11-28T00:09:41.385Z,0
2017-11-28T00:10:21.912Z,0
2017-11-28T00:11:02.439Z,0
2017-11-28T00:11:42.963Z,0
2017-11-28T00:12:23.490Z,0
2017-11-28T00:13:04.013Z,0
2017-11-28T00:13:44.535Z,0
2017-11-28T00:14:25.074Z,0
2017-11-28T00:15:05.610Z,0
2017-11-28T00:15:46.130Z,0
2017-11-28T00:16:26.654Z,0
2017-11-28T00:17:07.181Z,0
2017-11-28T00:17:47.722Z,0
2017-11-28T00:18:28.219Z,0
2017-11-28T00:19:08.738Z,0
2017-11-28T00:19:49.271Z,0
2017-11-28T00:20:29.792Z,0
2017-11-28T00:21:10.317Z,0
2017-11-28T00:21:50.848Z,0
2017-11-28T00:22:31.376Z,0
2017-11-28T00:23:11.901Z,0
2017-11-28T00:23:52.422Z,0
2017-11-28T00:24:32.959Z,0
2017-11-28T00:25:13.499Z,0
2017-11-28T00:25:54.017Z,0
2017-11-28T00:26:34.536Z,0
2017-11-28T00:27:15.054Z,0
2017-11-28T00:27:55.595Z,0
2017-11-28T00:28:36.132Z,0
2017-11-28T00:29:16.667Z,0
2017-11-28T00:29:57.188Z,0
2017-11-28T00:30:37.707Z,0
2017-11-28T00:31:18.237Z,0
2017-11-28T00:31:58.774Z,0
2017-11-28T00:32:39.326Z,0
2017-11-28T00:33:19.838Z,0
2017-11-28T00:34:00.351Z,0
2017-11-28T00:34:40.875Z,0
2017-11-28T00:35:21.393Z,0
2017-11-28T00:36:01.914Z,0
2017-11-28T00:36:42.440Z,0
2017-11-28T00:37:22.956Z,0
2017-11-28T00:38:03.471Z,0
2017-11-28T00:38:44.002Z,0
2017-11-28T00:39:24.539Z,0
2017-11-28T00:40:05.078Z,0
2017-11-28T00:40:45.602Z,0
2017-11-28T00:41:26.135Z,0
2017-11-28T00:42:06.659Z,0
2017-11-28T00:42:47.198Z,0
2017-11-28T00:43:27.727Z,0
2017-11-28T00:44:08.237Z,0
2017-11-28T00:44:48.772Z,0
2017-11-28T00:45:29.301Z,0
2017-11-28T00:46:09.832Z,0
2017-11-28T00:46:50.374Z,0
2017-11-28T00:47:30.884Z,0
2017-11-28T00:48:11.420Z,0
2017-11-28T00:48:51.957Z,0
2017-11-28T00:49:32.496Z,0
2017-11-28T00:50:13.013Z,0
2017-11-28T00:50:53.540Z,0
2017-11-28T00:51:34.071Z,0
2017-11-28T00:52:14.597Z,0
2017-11-28T00:52:55.135Z,0
2017-11-28T00:53:35.646Z,0
2017-11-28T00:54:16.175Z,0
2017-11-28T00:54:56.714Z,0
2017-11-28T00:55:37.251Z,0
2017-11-28T00:56:17.767Z,0
2017-11-28T00:56:58.289Z,0
2017-11-28T00:57:38.818Z,0
2017-11-28T00:58:19.334Z,0
2017-11-28T00:58:59.883Z,0
2017-11-28T00:59:40.407Z,0
2017-11-28T01:00:20.930Z,0
2017-11-28T01:01:01.466Z,0
2017-11-28T01:01:42.005Z,0
2017-11-28T01:02:22.535Z,0
2017-11-28T01:03:03.064Z,0
2017-11-28T01:03:43.589Z,0
2017-11-28T01:04:24.120Z,0
2017-11-28T01:05:04.655Z,0
2017-11-28T01:05:45.184Z,0
2017-11-28T01:06:25.690Z,0
2017-11-28T01:07:06.224Z,0
2017-11-28T01:07:46.752Z,0
2017-11-28T01:08:27.289Z,0
2017-11-28T01:09:07.814Z,0
2017-11-28T01:09:48.346Z,0
2017-11-28T01:10:28.905Z,0
2017-11-28T01:11:09.433Z,0
2017-11-28T01:11:49.967Z,0
2017-11-28T01:12:30.499Z,0
2017-11-28T01:13:11.023Z,0
2017-11-28T01:13:51.526Z,0
2017-11-28T01:14:32.074Z,0
2017-11-28T01:15:12.582Z,0
2017-11-28T01:15:53.112Z,0
2017-11-28T01:16:33.640Z,0
2017-11-28T01:17:14.167Z,0
2017-11-28T01:17:54.713Z,0
2017-11-28T01:18:35.477Z,0
2017-11-28T01:19:15.785Z,0
2017-11-28T01:19:56.305Z,0
2017-11-28T01:20:36.831Z,0
2017-11-28T01:21:17.365Z,0
2017-11-28T01:21:57.906Z,0
2017-11-28T01:22:38.430Z,0
2017-11-28T01:23:18.957Z,0
2017-11-28T01:23:59.492Z,0
2017-11-28T01:24:40.031Z,0
2017-11-28T01:25:20.566Z,0
2017-11-28T01:26:01.099Z,0
2017-11-28T01:26:41.620Z,0
2017-11-28T01:27:22.136Z,0
2017-11-28T01:28:02.679Z,0
2017-11-28T01:28:43.194Z,0
2017-11-28T01:29:23.717Z,0
2017-11-28T01:30:04.278Z,0
2017-11-28T01:30:44.808Z,0
2017-11-28T01:31:25.339Z,0
2017-11-28T01:32:05.868Z,0
2017-11-28T01:32:46.406Z,0
2017-11-28T01:33:26.928Z,0
2017-11-28T01:34:07.448Z,0
2017-11-28T01:34:47.984Z,0
2017-11-28T01:35:28.523Z,0
2017-11-28T01:36:09.064Z,0
2017-11-28T01:36:49.604Z,0
2017-11-28T01:37:30.128Z,0
2017-11-28T01:38:10.650Z,0
2017-11-28T01:38:51.183Z,0
2017-11-28T01:39:31.719Z,0
2017-11-28T01:40:12.261Z,0
2017-11-28T01:40:52.798Z,0
2017-11-28T01:41:33.320Z,0
2017-11-28T01:42:13.846Z,0
2017-11-28T01:42:54.375Z,0
2017-11-28T01:43:34.897Z,0
2017-11-28T01:44:15.429Z,0
2017-11-28T01:44:55.965Z,0
2017-11-28T01:45:36.493Z,0
2017-11-28T01:46:17.027Z,0
2017-11-28T01:46:57.556Z,0
2017-11-28T01:47:38.081Z,0
2017-11-28T01:48:18.602Z,0
2017-11-28T01:48:59.150Z,0
2017-11-28T01:49:39.667Z,0
2017-11-28T01:50:20.202Z,0
2017-11-28T01:51:00.726Z,0
2017-11-28T01:51:41.264Z,0
2017-11-28T01:52:21.816Z,0
2017-11-28T01:53:02.348Z,0
2017-11-28T01:53:42.880Z,0
2017-11-28T01:54:23.407Z,0
2017-11-28T01:55:03.943Z,0
2017-11-28T01:55:44.453Z,0
2017-11-28T01:56:24.988Z,0
2017-11-28T01:57:05.537Z,0
2017-11-28T01:57:46.061Z,0
2017-11-28T01:58:26.588Z,0
2017-11-28T01:59:07.126Z,0
2017-11-28T01:59:47.647Z,0
2017-11-28T02:00:28.183Z,0
2017-11-28T02:01:08.720Z,0
2017-11-28T02:01:49.226Z,0
2017-11-28T02:02:29.756Z,0
2017-11-28T02:03:10.318Z,0
2017-11-28T02:03:50.842Z,0
2017-11-28T02:04:31.378Z,0
2017-11-28T02:05:11.894Z,0
2017-11-28T02:05:52.443Z,0
2017-11-28T02:06:32.979Z,0
2017-11-28T02:07:13.506Z,0
2017-11-28T02:07:54.028Z,0
2017-11-28T02:08:34.551Z,0
2017-11-28T02:09:15.090Z,0
2017-11-28T02:09:55.613Z,0
2017-11-28T02:10:36.148Z,0
2017-11-28T02:11:16.682Z,0
2017-11-28T02:11:57.215Z,0
2017-11-28T02:12:37.748Z,0
2017-11-28T02:13:18.260Z,0
2017-11-28T02:13:58.792Z,0
2017-11-28T02:14:39.301Z,0
2017-11-28T02:15:19.826Z,0
2017-11-28T02:16:00.367Z,0
2017-11-28T02:16:40.897Z,0
2017-11-28T02:17:21.397Z,0
2017-11-28T02:18:01.962Z,0
2017-11-28T02:18:42.467Z,0
2017-11-28T02:19:22.985Z,0
2017-11-28T02:20:03.521Z,0
2017-11-28T02:20:44.045Z,0
2017-11-28T02:21:24.554Z,0
2017-11-28T02:22:05.090Z,0
2017-11-28T02:22:45.611Z,0
2017-11-28T02:23:26.141Z,0
2017-11-28T02:24:06.672Z,0
2017-11-28T02:24:47.208Z,0
2017-11-28T02:25:27.733Z,0
2017-11-28T02:26:08.248Z,0
2017-11-28T02:26:48.785Z,0
2017-11-28T02:27:29.320Z,0
2017-11-28T02:28:09.857Z,0
2017-11-28T02:28:50.386Z,0
2017-11-28T02:29:30.891Z,0
2017-11-28T02:30:11.391Z,0
2017-11-28T02:30:51.917Z,0
2017-11-28T02:31:32.423Z,0
2017-11-28T02:32:13.026Z,0
2017-11-28T02:32:53.548Z,0
2017-11-28T02:33:34.064Z,0
2017-11-28T02:34:14.588Z,0
2017-11-28T02:34:55.111Z,0
2017-11-28T02:35:35.640Z,0
2017-11-28T02:36:16.163Z,0
2017-11-28T02:36:56.694Z,0
2017-11-28T02:37:37.212Z,0
2017-11-28T02:38:17.736Z,0
2017-11-28T02:38:58.268Z,0
2017-11-28T02:39:38.803Z,0
2017-11-28T02:40:19.332Z,0
2017-11-28T02:40:59.857Z,0
2017-11-28T02:41:40.387Z,0
2017-11-28T02:42:20.919Z,0
2017-11-28T02:43:01.459Z,0
2017-11-28T02:43:41.966Z,0
2017-11-28T02:44:22.494Z,0
2017-11-28T02:45:03.018Z,0
2017-11-28T02:45:43.546Z,0
2017-11-28T02:46:24.116Z,0
2017-11-28T02:47:04.645Z,0
2017-11-28T02:47:45.173Z,0
2017-11-28T02:48:25.700Z,0
2017-11-28T02:49:06.231Z,0
2017-11-28T02:49:46.747Z,0
2017-11-28T02:50:27.284Z,0
2017-11-28T02:51:07.818Z,0
2017-11-28T02:51:48.355Z,0
2017-11-28T02:52:28.886Z,0
2017-11-28T02:53:09.423Z,0
2017-11-28T02:53:49.948Z,0
2017-11-28T02:54:30.465Z,0
2017-11-28T02:55:10.986Z,0
2017-11-28T02:55:51.517Z,0
2017-11-28T02:56:32.028Z,0
2017-11-28T02:57:12.560Z,0
2017-11-28T02:57:53.084Z,0
2017-11-28T02:58:33.638Z,0
2017-11-28T02:59:14.141Z,0
2017-11-28T02:59:54.672Z,0
2017-11-28T03:00:35.193Z,0
2017-11-28T03:01:15.724Z,0
2017-11-28T03:01:56.265Z,0
2017-11-28T03:02:36.781Z,0
2017-11-28T03:03:17.305Z,0
2017-11-28T03:03:57.825Z,0
2017-11-28T03:04:38.357Z,0
2017-11-28T03:05:18.891Z,0
2017-11-28T03:05:59.411Z,0
2017-11-28T03:06:39.940Z,0
2017-11-28T03:07:20.446Z,0
2017-11-28T03:08:00.967Z,0
2017-11-28T03:08:41.496Z,0
2017-11-28T03:09:22.024Z,0
2017-11-28T03:10:02.540Z,0
2017-11-28T03:10:43.078Z,0
2017-11-28T03:11:23.610Z,0
2017-11-28T03:12:04.139Z,0
2017-11-28T03:12:44.663Z,0
2017-11-28T03:13:25.187Z,0
2017-11-28T03:14:05.709Z,0
2017-11-28T03:14:46.220Z,0
2017-11-28T03:15:26.753Z,0
2017-11-28T03:16:07.279Z,0
2017-11-28T03:16:47.816Z,0
2017-11-28T03:17:28.336Z,0
2017-11-28T03:18:08.865Z,0
2017-11-28T03:18:49.401Z,0
2017-11-28T03:19:29.911Z,0
2017-11-28T03:20:10.432Z,0
2017-11-28T03:20:50.961Z,0
2017-11-28T03:21:31.468Z,0
2017-11-28T03:22:11.988Z,0
2017-11-28T03:22:52.519Z,0
2017-11-28T03:23:33.027Z,0
2017-11-28T03:24:13.548Z,0
2017-11-28T03:24:54.074Z,0
2017-11-28T03:25:34.604Z,0
2017-11-28T03:26:15.146Z,0
2017-11-28T03:26:55.665Z,0
2017-11-28T03:27:36.190Z,0
2017-11-28T03:28:16.714Z,0
2017-11-28T03:28:57.251Z,0
2017-11-28T03:29:37.773Z,0
2017-11-28T03:30:18.312Z,0
2017-11-28T03:30:58.840Z,0
2017-11-28T03:31:39.385Z,0
2017-11-28T03:32:19.902Z,0
2017-11-28T03:33:00.421Z,0
2017-11-28T03:33:40.942Z,0
2017-11-28T03:34:21.458Z,0
2017-11-28T03:35:01.996Z,0
2017-11-28T03:35:42.523Z,0
2017-11-28T03:36:23.050Z,0
2017-11-28T03:37:03.574Z,0
2017-11-28T03:37:44.097Z,0
2017-11-28T03:38:24.607Z,0
2017-11-28T03:39:05.157Z,0
2017-11-28T03:39:45.675Z,0
2017-11-28T03:40:26.189Z,0
2017-11-28T03:41:06.727Z,0
2017-11-28T03:41:47.249Z,0
2017-11-28T03:42:27.777Z,0
2017-11-28T03:43:08.300Z,0
2017-11-28T03:43:48.828Z,0
2017-11-28T03:44:29.346Z,0
2017-11-28T03:45:09.882Z,0
2017-11-28T03:45:50.416Z,0
2017-11-28T03:46:30.928Z,0
2017-11-28T03:47:11.448Z,0
2017-11-28T03:47:51.986Z,0
2017-11-28T03:48:32.493Z,0
2017-11-28T03:49:13.009Z,0
2017-11-28T03:49:53.525Z,0
2017-11-28T03:50:34.050Z,0
2017-11-28T03:51:14.583Z,0
2017-11-28T03:51:55.112Z,0
2017-11-28T03:52:35.637Z,0
2017-11-28T03:53:16.175Z,0
2017-11-28T03:53:56.668Z,0
2017-11-28T03:54:37.191Z,0
2017-11-28T03:55:17.720Z,0
2017-11-28T03:55:58.245Z,0
2017-11-28T03:56:38.742Z,0
2017-11-28T03:57:19.277Z,0
2017-11-28T03:57:59.805Z,0
2017-11-28T03:58:40.327Z,0
2017-11-28T03:59:20.867Z,0
2017-11-28T04:00:01.380Z,0
2017-11-28T04:00:41.892Z,0
2017-11-28T04:01:22.423Z,0
2017-11-28T04:02:02.935Z,0
2017-11-28T04:02:43.480Z,0
2017-11-28T04:03:24.032Z,0
2017-11-28T04:04:04.546Z,0
2017-11-28T04:04:45.072Z,0
2017-11-28T04:05:25.593Z,0
2017-11-28T04:06:06.129Z,0
2017-11-28T04:06:46.642Z,0
2017-11-28T04:07:27.162Z,0
2017-11-28T04:08:07.691Z,0
2017-11-28T04:08:48.216Z,0
2017-11-28T04:09:28.739Z,0
2017-11-28T04:10:09.269Z,0
2017-11-28T04:10:49.834Z,0
2017-11-28T04:11:30.369Z,0
2017-11-28T04:12:10.896Z,0
2017-11-28T04:12:51.416Z,0
2017-11-28T04:13:31.942Z,0
2017-11-28T04:14:12.460Z,0
2017-11-28T04:14:53.013Z,0
2017-11-28T04:15:33.513Z,0
2017-11-28T04:16:14.073Z,0
2017-11-28T04:16:54.607Z,0
2017-11-28T04:17:35.137Z,0
2017-11-28T04:18:15.648Z,0
2017-11-28T04:18:56.217Z,0
2017-11-28T04:19:36.732Z,0
2017-11-28T04:20:17.253Z,0
2017-11-28T04:20:57.787Z,0
2017-11-28T04:21:38.312Z,0
2017-11-28T04:22:18.828Z,0
2017-11-28T04:22:59.347Z,0
2017-11-28T04:23:39.893Z,0
2017-11-28T04:24:20.496Z,0
2017-11-28T04:25:01.031Z,0
2017-11-28T04:25:41.568Z,0
2017-11-28T04:26:22.276Z,0
2017-11-28T04:27:02.816Z,0
2017-11-28T04:27:43.329Z,0
2017-11-28T04:28:23.860Z,0
2017-11-28T04:29:04.387Z,0
2017-11-28T04:29:44.925Z,0
2017-11-28T04:30:25.435Z,0
2017-11-28T04:31:06.065Z,0
2017-11-28T04:31:46.593Z,0
2017-11-28T04:32:27.138Z,0
2017-11-28T04:33:07.734Z,0
2017-11-28T04:33:48.256Z,0
2017-11-28T04:34:28.785Z,0
2017-11-28T04:35:09.322Z,0
2017-11-28T04:35:49.852Z,0
2017-11-28T04:36:30.377Z,0
2017-11-28T04:37:10.889Z,0
2017-11-28T04:37:51.400Z,0
2017-11-28T04:38:32.066Z,0
2017-11-28T04:39:12.581Z,0
2017-11-28T04:39:53.115Z,0
2017-11-28T04:40:33.639Z,0
2017-11-28T04:41:14.157Z,0
2017-11-28T04:41:54.681Z,0
2017-11-28T04:42:35.215Z,0
2017-11-28T04:43:15.771Z,0
2017-11-28T04:43:56.296Z,0
2017-11-28T04:44:36.835Z,0
2017-11-28T04:45:17.340Z,0
2017-11-28T04:45:58.777Z,0
2017-11-28T04:46:39.315Z,0
2017-11-28T04:47:20.492Z,0
2017-11-28T04:48:02.914Z,0
2017-11-28T04:48:43.455Z,0
2017-11-28T04:49:23.987Z,0
2017-11-28T04:50:05.791Z,0
2017-11-28T04:50:48.212Z,0
2017-11-28T04:51:30.448Z,0
2017-11-28T04:54:06.255Z,0
2017-11-28T04:54:46.778Z,0
2017-11-28T04:55:27.322Z,0
2017-11-28T04:56:07.842Z,0
2017-11-28T04:56:48.380Z,0
2017-11-28T04:57:28.896Z,0
2017-11-28T04:58:09.405Z,0
2017-11-28T04:58:49.954Z,0
2017-11-28T04:59:30.481Z,0
2017-11-28T05:00:11.004Z,0
2017-11-28T05:00:51.519Z,0
2017-11-28T05:01:32.053Z,0
2017-11-28T05:02:12.582Z,0
2017-11-28T05:02:53.110Z,0
2017-11-28T05:03:33.622Z,0
2017-11-28T05:04:14.150Z,0
2017-11-28T05:04:54.680Z,0
2017-11-28T05:05:35.223Z,0
2017-11-28T05:06:15.741Z,0
2017-11-28T05:06:56.250Z,0
2017-11-28T05:07:36.775Z,0
2017-11-28T05:08:17.302Z,0
2017-11-28T05:08:57.809Z,0
2017-11-28T05:09:38.340Z,0
2017-11-28T05:10:18.861Z,0
2017-11-28T05:10:59.376Z,0
2017-11-28T05:11:39.901Z,0
2017-11-28T05:12:20.429Z,0
2017-11-28T05:13:00.948Z,0
2017-11-28T05:13:41.473Z,0
2017-11-28T05:14:22.003Z,0
2017-11-28T05:15:02.531Z,0
2017-11-28T05:15:43.067Z,0
2017-11-28T05:16:23.578Z,0
2017-11-28T05:17:04.115Z,0
2017-11-28T05:17:44.644Z,0
2017-11-28T05:18:25.173Z,0
2017-11-28T05:19:05.693Z,0
2017-11-28T05:19:46.210Z,0
2017-11-28T05:20:26.779Z,0
2017-11-28T05:21:07.292Z,0
2017-11-28T05:21:47.778Z,0
2017-11-28T05:22:28.300Z,0
2017-11-28T05:23:08.801Z,0
2017-11-28T05:23:49.311Z,0
2017-11-28T05:24:29.830Z,0
2017-11-28T05:25:10.328Z,0
2017-11-28T05:25:50.856Z,0
2017-11-28T05:26:31.340Z,0
2017-11-28T05:27:11.849Z,0
2017-11-28T05:27:52.369Z,0
2017-11-28T05:28:32.878Z,0
2017-11-28T05:29:13.404Z,0
2017-11-28T05:29:53.945Z,0
2017-11-28T05:30:34.450Z,0
2017-11-28T05:31:14.966Z,0
2017-11-28T05:31:55.491Z,0
2017-11-28T05:32:36.032Z,0
2017-11-28T05:33:16.540Z,0
2017-11-28T05:33:57.057Z,0
2017-11-28T05:34:37.585Z,0
2017-11-28T05:35:18.099Z,0
2017-11-28T05:35:58.629Z,0
2017-11-28T05:36:39.152Z,0
2017-11-28T05:37:19.679Z,0
2017-11-28T05:38:00.183Z,0
2017-11-28T05:38:40.712Z,0
2017-11-28T05:39:21.234Z,0
2017-11-28T05:40:01.758Z,0
2017-11-28T05:40:42.293Z,0
2017-11-28T05:41:22.799Z,0
2017-11-28T05:42:03.329Z,0
2017-11-28T05:42:43.851Z,0
2017-11-28T05:43:24.371Z,0
2017-11-28T05:44:04.917Z,0
2017-11-28T05:44:45.449Z,0
2017-11-28T05:45:25.978Z,0
2017-11-28T05:46:06.463Z,0
2017-11-28T05:46:47.019Z,0
2017-11-28T05:47:27.542Z,0
2017-11-28T05:48:08.058Z,0
2017-11-28T05:48:48.588Z,0
2017-11-28T05:49:29.089Z,0
2017-11-28T05:50:09.630Z,0
2017-11-28T05:50:50.157Z,0
2017-11-28T05:51:30.684Z,0
2017-11-28T05:52:11.213Z,0
2017-11-28T05:52:51.776Z,0
2017-11-28T05:53:32.304Z,0
2017-11-28T05:54:12.819Z,0
2017-11-28T05:54:53.354Z,0
2017-11-28T05:55:33.876Z,0
2017-11-28T05:56:14.391Z,0
2017-11-28T05:56:54.910Z,0
2017-11-28T05:57:35.837Z,0
2017-11-28T05:58:16.359Z,0
2017-11-28T05:58:56.870Z,0
2017-11-28T05:59:37.379Z,0
2017-11-28T06:00:17.893Z,0
2017-11-28T06:00:58.411Z,0
2017-11-28T06:01:38.933Z,0
2017-11-28T06:02:19.439Z,0
2017-11-28T06:02:59.952Z,0
2017-11-28T06:03:40.484Z,0
2017-11-28T06:04:20.979Z,0
2017-11-28T06:05:01.503Z,0
2017-11-28T06:05:42.029Z,0
2017-11-28T06:06:22.557Z,0
2017-11-28T06:07:03.079Z,0
2017-11-28T06:07:43.584Z,0
2017-11-28T06:08:24.092Z,0
2017-11-28T06:09:04.608Z,0
2017-11-28T06:09:45.128Z,0
2017-11-28T06:10:25.654Z,0
2017-11-28T06:11:06.159Z,0
2017-11-28T06:11:46.669Z,0
2017-11-28T06:12:27.260Z,0
2017-11-28T06:13:07.777Z,0
2017-11-28T06:13:48.308Z,0
2017-11-28T06:14:28.827Z,0
2017-11-28T06:15:09.355Z,0
2017-11-28T06:15:49.891Z,0
2017-11-28T06:16:30.410Z,0
2017-11-28T06:17:10.967Z,0
2017-11-28T06:17:51.501Z,0
2017-11-28T06:18:32.063Z,0
2017-11-28T06:19:12.568Z,0
2017-11-28T06:19:53.088Z,0
2017-11-28T06:20:33.622Z,0
2017-11-28T06:21:14.140Z,0
2017-11-28T06:21:54.650Z,0
2017-11-28T06:22:35.169Z,0
2017-11-28T06:23:15.700Z,0
2017-11-28T06:23:56.232Z,0
2017-11-28T06:24:36.739Z,0
2017-11-28T06:25:17.262Z,0
2017-11-28T06:25:57.790Z,0
2017-11-28T06:26:38.329Z,0
2017-11-28T06:27:18.843Z,0
2017-11-28T06:27:59.367Z,0
2017-11-28T06:28:39.868Z,0
2017-11-28T06:29:20.390Z,0
2017-11-28T06:30:00.903Z,0
2017-11-28T06:30:41.405Z,0
2017-11-28T06:31:21.921Z,0
2017-11-28T06:32:02.463Z,0
2017-11-28T06:32:42.963Z,0
2017-11-28T06:33:23.488Z,0
2017-11-28T06:34:03.994Z,0
2017-11-28T06:34:44.525Z,0
2017-11-28T06:35:25.031Z,0
2017-11-28T06:36:05.544Z,0
2017-11-28T06:36:46.090Z,0
2017-11-28T06:37:26.609Z,0
2017-11-28T06:38:07.128Z,0
2017-11-28T06:38:47.658Z,0
2017-11-28T06:39:28.239Z,0
2017-11-28T06:40:08.748Z,0
2017-11-28T06:40:49.303Z,0
2017-11-28T06:41:29.830Z,0
2017-11-28T06:42:10.365Z,0
2017-11-28T06:42:50.889Z,0
2017-11-28T06:43:31.407Z,0
2017-11-28T06:44:11.943Z,0
2017-11-28T06:44:52.458Z,0
2017-11-28T06:45:32.982Z,0
2017-11-28T06:46:13.499Z,0
2017-11-28T06:46:54.049Z,0
2017-11-28T06:47:34.555Z,0
2017-11-28T06:48:17.659Z,0
2017-11-28T06:48:58.170Z,0
2017-11-28T06:49:38.688Z,0
2017-11-28T06:50:19.219Z,0
2017-11-28T06:50:59.746Z,0
2017-11-28T06:51:40.261Z,0
2017-11-28T06:52:20.780Z,0
2017-11-28T06:53:01.309Z,0
2017-11-28T06:53:41.831Z,0
2017-11-28T06:54:22.350Z,0
2017-11-28T06:55:02.869Z,0
2017-11-28T06:55:43.385Z,0
2017-11-28T06:56:23.950Z,0
2017-11-28T06:57:04.511Z,0
2017-11-28T06:57:45.038Z,0
2017-11-28T06:58:25.556Z,0
2017-11-28T06:59:06.082Z,0
2017-11-28T06:59:46.605Z,0
2017-11-28T07:00:27.160Z,0
2017-11-28T07:01:07.657Z,0
2017-11-28T07:01:48.183Z,0
2017-11-28T07:02:28.689Z,0
2017-11-28T07:03:09.209Z,0
2017-11-28T07:03:49.716Z,0
2017-11-28T07:04:30.251Z,0
2017-11-28T07:05:10.747Z,0
2017-11-28T07:05:51.276Z,0
2017-11-28T07:06:31.792Z,0
2017-11-28T07:07:12.308Z,0
2017-11-28T07:07:52.823Z,0
2017-11-28T07:08:33.345Z,0
2017-11-28T07:09:13.853Z,0
2017-11-28T07:09:54.355Z,0
2017-11-28T07:10:34.872Z,0
2017-11-28T07:11:15.382Z,0
2017-11-28T07:11:55.933Z,5
2017-11-28T07:12:36.479Z,5
2017-11-28T07:13:16.987Z,5
2017-11-28T07:13:57.507Z,5
2017-11-28T07:14:38.033Z,5
2017-11-28T07:15:18.558Z,5
2017-11-28T07:15:59.126Z,5
2017-11-28T07:16:39.611Z,5
2017-11-28T07:17:20.124Z,5
2017-11-28T07:18:00.652Z,5
2017-11-28T07:18:41.184Z,5
2017-11-28T07:19:21.707Z,10
2017-11-28T07:20:02.224Z,10
2017-11-28T07:20:42.732Z,10
2017-11-28T07:21:23.263Z,10
2017-11-28T07:22:03.800Z,10
2017-11-28T07:22:44.319Z,10
2017-11-28T07:23:24.853Z,10
2017-11-28T07:24:05.371Z,15
2017-11-28T07:24:45.889Z,15
2017-11-28T07:25:26.430Z,15
2017-11-28T07:26:06.946Z,15
2017-11-28T07:26:47.546Z,15
2017-11-28T07:27:28.057Z,15
2017-11-28T07:28:08.562Z,15
2017-11-28T07:28:49.076Z,15
2017-11-28T07:29:29.602Z,20
2017-11-28T07:30:10.092Z,20
2017-11-28T07:30:50.612Z,20
2017-11-28T07:31:31.129Z,20
2017-11-28T07:32:11.638Z,20
2017-11-28T07:32:52.165Z,20
2017-11-28T07:33:32.655Z,20
2017-11-28T07:34:13.174Z,20
2017-11-28T07:34:53.698Z,20
2017-11-28T07:35:34.217Z,20
2017-11-28T07:36:14.729Z,25
2017-11-28T07:36:55.251Z,25
2017-11-28T07:37:35.747Z,25
2017-11-28T07:38:16.256Z,25
2017-11-28T07:38:56.765Z,25
2017-11-28T07:39:37.259Z,25
2017-11-28T07:40:17.797Z,25
2017-11-28T07:40:58.305Z,25
2017-11-28T07:41:38.829Z,30
2017-11-28T07:42:19.331Z,30
2017-11-28T07:42:59.826Z,30
2017-11-28T07:43:40.345Z,30
2017-11-28T07:44:20.856Z,30
2017-11-28T07:45:01.375Z,35
2017-11-28T07:45:41.896Z,35
2017-11-28T07:46:22.396Z,40
2017-11-28T07:47:02.933Z,40
2017-11-28T07:47:43.468Z,45
2017-11-28T07:48:24.002Z,40
2017-11-28T07:49:04.523Z,40
2017-11-28T07:49:45.033Z,40
2017-11-28T07:50:25.552Z,45
2017-11-28T07:51:06.066Z,45
2017-11-28T07:51:46.595Z,45
2017-11-28T07:52:27.074Z,45
2017-11-28T07:53:07.596Z,45
2017-11-28T07:53:48.130Z,45
2017-11-28T07:54:28.706Z,45
2017-11-28T07:55:09.159Z,40
2017-11-28T07:55:49.683Z,45
2017-11-28T07:56:30.194Z,45
2017-11-28T07:57:10.700Z,45
2017-11-28T07:57:51.240Z,45
2017-11-28T07:58:31.769Z,50
2017-11-28T07:59:12.293Z,50
2017-11-28T07:59:52.810Z,50
2017-11-28T08:00:33.327Z,50
2017-11-28T08:01:13.871Z,50
2017-11-28T08:01:54.380Z,50
2017-11-28T08:02:34.884Z,55
2017-11-28T08:03:15.414Z,55
2017-11-28T08:03:55.921Z,55
2017-11-28T08:04:36.443Z,55
2017-11-28T08:05:16.968Z,55
2017-11-28T08:05:57.471Z,55
2017-11-28T08:06:37.989Z,55
2017-11-28T08:07:18.512Z,55
2017-11-28T08:07:59.017Z,60
2017-11-28T08:08:39.531Z,60
2017-11-28T08:09:20.058Z,60
2017-11-28T08:10:00.593Z,60
2017-11-28T08:10:41.109Z,60
2017-11-28T08:11:21.619Z,65
2017-11-28T08:12:02.142Z,65
2017-11-28T08:12:42.669Z,65
2017-11-28T08:13:23.197Z,65
2017-11-28T08:14:03.720Z,65
2017-11-28T08:14:44.253Z,65
2017-11-28T08:15:24.757Z,65
2017-11-28T08:16:05.291Z,75
2017-11-28T08:16:45.819Z,75
2017-11-28T08:17:26.336Z,75
2017-11-28T08:18:06.848Z,75
2017-11-28T08:18:47.364Z,75
2017-11-28T08:19:27.879Z,75
2017-11-28T08:20:08.397Z,75
2017-11-28T08:20:48.928Z,75
2017-11-28T08:21:29.459Z,75
2017-11-28T08:22:09.995Z,80
2017-11-28T08:22:50.506Z,80
2017-11-28T08:23:31.036Z,75
2017-11-28T08:24:11.558Z,75
2017-11-28T08:24:52.066Z,70
2017-11-28T08:25:32.584Z,70
2017-11-28T08:26:13.110Z,75
2017-11-28T08:26:53.608Z,80
2017-11-28T08:27:34.140Z,75
2017-11-28T08:28:14.659Z,75
2017-11-28T08:28:55.163Z,80
2017-11-28T08:29:35.684Z,80
2017-11-28T08:30:16.212Z,80
2017-11-28T08:30:56.834Z,85
2017-11-28T08:31:37.355Z,85
2017-11-28T08:32:17.864Z,85
2017-11-28T08:32:58.370Z,85
2017-11-28T08:33:38.883Z,90
2017-11-28T08:34:19.403Z,90
2017-11-28T08:34:59.933Z,90
2017-11-28T08:35:40.461Z,90
2017-11-28T08:36:20.988Z,100
2017-11-28T08:37:01.533Z,100
2017-11-28T08:37:42.029Z,105
2017-11-28T08:38:22.562Z,105
2017-11-28T08:39:03.092Z,105
2017-11-28T08:39:43.620Z,110
2017-11-28T08:40:24.168Z,110
2017-11-28T08:41:04.704Z,115
2017-11-28T08:41:45.192Z,120
2017-11-28T08:42:25.715Z,120
2017-11-28T08:43:06.226Z,120
2017-11-28T08:43:46.759Z,120
2017-11-28T08:44:27.280Z,120
2017-11-28T08:45:07.776Z,125
2017-11-28T08:45:48.303Z,130
2017-11-28T08:46:28.853Z,130
2017-11-28T08:47:09.353Z,130
2017-11-28T08:47:49.872Z,135
2017-11-28T08:48:30.375Z,140
2017-11-28T08:49:10.902Z,155
2017-11-28T08:49:51.434Z,160
2017-11-28T08:50:31.956Z,170
2017-11-28T08:51:12.472Z,175
2017-11-28T08:51:52.963Z,180
2017-11-28T08:52:33.473Z,180
2017-11-28T08:53:13.989Z,185
2017-11-28T08:53:54.495Z,185
2017-11-28T08:54:35.022Z,190
2017-11-28T08:55:15.540Z,190
2017-11-28T08:55:56.044Z,195
2017-11-28T08:56:36.582Z,200
2017-11-28T08:57:17.089Z,200
2017-11-28T08:57:57.611Z,195
2017-11-28T08:58:38.191Z,200
2017-11-28T08:59:18.721Z,210
2017-11-28T08:59:59.263Z,205
2017-11-28T09:00:39.775Z,210
2017-11-28T09:01:20.313Z,205
2017-11-28T09:02:00.836Z,215
2017-11-28T09:02:41.351Z,225
2017-11-28T09:03:21.874Z,225
2017-11-28T09:04:02.387Z,225
2017-11-28T09:04:42.915Z,225
2017-11-28T09:05:23.436Z,245
2017-11-28T09:06:03.980Z,260
2017-11-28T09:06:44.480Z,275
2017-11-28T09:07:25.008Z,290
2017-11-28T09:08:05.535Z,285
2017-11-28T09:08:46.040Z,320
2017-11-28T09:09:26.553Z,390
2017-11-28T09:10:07.050Z,525
2017-11-28T09:10:47.572Z,660
2017-11-28T09:11:28.098Z,690
2017-11-28T09:12:08.623Z,545
2017-11-28T09:12:49.152Z,440
2017-11-28T09:13:29.674Z,445
2017-11-28T09:14:10.177Z,420
2017-11-28T09:14:50.702Z,305
2017-11-28T09:15:31.231Z,275
2017-11-28T09:16:11.755Z,320
2017-11-28T09:16:52.276Z,325
2017-11-28T09:17:32.785Z,335
2017-11-28T09:18:13.316Z,280
2017-11-28T09:18:53.818Z,315
2017-11-28T09:19:34.367Z,400
2017-11-28T09:20:14.887Z,515
2017-11-28T09:20:55.415Z,565
2017-11-28T09:21:35.940Z,520
2017-11-28T09:22:16.481Z,370
2017-11-28T09:22:57.006Z,280
2017-11-28T09:23:37.529Z,325
2017-11-28T09:24:18.052Z,405
2017-11-28T09:24:58.581Z,500
2017-11-28T09:25:39.098Z,585
2017-11-28T09:26:19.610Z,610
2017-11-28T09:27:00.180Z,595
2017-11-28T09:27:40.712Z,600
2017-11-28T09:28:21.232Z,690
2017-11-28T09:29:01.769Z,955
2017-11-28T09:29:42.258Z,1095
2017-11-28T09:30:22.787Z,1205
2017-11-28T09:31:03.318Z,1135
2017-11-28T09:31:43.841Z,1065
2017-11-28T09:32:24.375Z,820
2017-11-28T09:33:04.882Z,580
2017-11-28T09:33:45.401Z,580
2017-11-28T09:34:25.920Z,800
2017-11-28T09:35:06.444Z,850
2017-11-28T09:35:46.961Z,830
2017-11-28T09:36:27.490Z,840
2017-11-28T09:37:08.045Z,680
2017-11-28T09:37:48.560Z,545
2017-11-28T09:38:29.101Z,630
2017-11-28T09:39:09.636Z,665
2017-11-28T09:39:50.152Z,770
2017-11-28T09:40:30.646Z,600
2017-11-28T09:41:11.199Z,705
2017-11-28T09:41:51.738Z,600
2017-11-28T09:42:32.256Z,600
2017-11-28T09:43:12.756Z,555
2017-11-28T09:43:53.316Z,485
2017-11-28T09:44:33.847Z,510
2017-11-28T09:45:14.341Z,495
2017-11-28T09:45:54.843Z,450
2017-11-28T09:46:35.376Z,415
2017-11-28T09:47:15.894Z,450
2017-11-28T09:47:56.433Z,460
2017-11-28T09:48:36.972Z,410
2017-11-28T09:49:17.508Z,480
2017-11-28T09:49:58.040Z,600
2017-11-28T09:50:38.591Z,575
2017-11-28T09:51:19.101Z,555
2017-11-28T09:51:59.633Z,770
2017-11-28T09:52:40.165Z,865